^^
Meteo Knjazevac Station Historical Data
Daily Summary for August 17, 2021 Units:  Metric    English   Both
Daily Weekly Monthly Yearly Custom
  High: Low: Average:
Temperature: 29.4 °C 13.3 °C 21.1 °C
Dew Point: 21.5 °C 12.3 °C 17.2 °C
Humidity: 96% 53% 80%
Wind Speed: 11.3km/h 0km/h 2.9km/h
Wind Gust: 20.9km/h - -
Wind- - SSW
Pressure: 1020.5 hPa 1018.2 hPa -
Precipitation: 3.81 mm    
Historical Graphs
 
 
Tabular Data for August 17, 2021
Time Temperature Dew Point Pressure Wind Wind Speed Wind Gust Humidity Rainfall Rate (Hourly) solar Conditions
00:00 18 °C 15.4 °C 1019.2 hPa ENE 1.6 km/h 4.8 km/h 85% 0 mm 0 W/m2
00:10 17.8 °C 15.3 °C 1019.2 hPa Calm   3.2 km/h 85% 0 mm 0 W/m2
00:20 17.8 °C 15.2 °C 1019.5 hPa Calm   3.2 km/h 85% 0 mm 0 W/m2
00:30 17.8 °C 15.4 °C 1019.5 hPa SW 1.6 km/h 4.8 km/h 86% 0 mm 0 W/m2
00:40 17.7 °C 15.7 °C 1019.2 hPa Calm   4.8 km/h 88% 0 mm 0 W/m2
00:50 17.6 °C 15.6 °C 1019.2 hPa Calm     88% 0 mm 0 W/m2
01:00 17.5 °C 15.5 °C 1019.2 hPa NW 1.6 km/h 3.2 km/h 88% 0 mm 0 W/m2
01:10 17.4 °C 15.4 °C 1019.2 hPa Calm   3.2 km/h 88% 0 mm 0 W/m2
01:20 17.3 °C 15.3 °C 1019.5 hPa Calm   3.2 km/h 88% 0 mm 0 W/m2
01:30 17.2 °C 15.4 °C 1019.5 hPa North 1.6 km/h 4.8 km/h 89% 0 mm 0 W/m2
01:40 16.9 °C 15.1 °C 1019.5 hPa Calm   3.2 km/h 89% 0 mm 0 W/m2
01:50 16.8 °C 15 °C 1019.5 hPa Calm   3.2 km/h 89% 0 mm 0 W/m2
02:00 16.5 °C 14.8 °C 1019.5 hPa Calm   1.6 km/h 90% 0 mm 0 W/m2
02:10 16.3 °C 14.7 °C 1019.5 hPa Calm   3.2 km/h 90% 0 mm 0 W/m2
02:20 16.1 °C 14.6 °C 1019.5 hPa NW 1.6 km/h 3.2 km/h 91% 0 mm 0 W/m2
02:30 15.8 °C 14.4 °C 1019.5 hPa Calm   3.2 km/h 91% 0 mm 0 W/m2
02:40 15.7 °C 14.2 °C 1019.2 hPa NNE 1.6 km/h 6.4 km/h 91% 0 mm 0 W/m2
02:50 15.8 °C 14.3 °C 1019.2 hPa SE 1.6 km/h 8 km/h 91% 0 mm 0 W/m2
03:00 15.6 °C 14.1 °C 1019.2 hPa Calm   6.4 km/h 91% 0 mm 0 W/m2
03:10 15.4 °C 13.9 °C 1019.5 hPa NNW 1.6 km/h 8 km/h 91% 0 mm 0 W/m2
03:20 15.3 °C 13.8 °C 1019.2 hPa Calm   8 km/h 91% 0 mm 0 W/m2
03:30 14.9 °C 13.4 °C 1019.5 hPa Calm   3.2 km/h 91% 0 mm 0 W/m2
03:40 14.7 °C 13.6 °C 1019.5 hPa WNW 3.2 km/h 4.8 km/h 93% 0 mm 0 W/m2
03:50 14.4 °C 13.3 °C 1019.5 hPa WNW 1.6 km/h 3.2 km/h 93% 0 mm 0 W/m2
04:00 14.2 °C 13.1 °C 1019.5 hPa West 1.6 km/h 3.2 km/h 93% 0 mm 0 W/m2
04:10 13.9 °C 12.9 °C 1019.5 hPa WNW 1.6 km/h 4.8 km/h 94% 0 mm 0 W/m2
04:20 13.9 °C 12.9 °C 1019.2 hPa NNW 1.6 km/h 3.2 km/h 94% 0 mm 0 W/m2
04:30 13.8 °C 12.8 °C 1019.2 hPa Calm   1.6 km/h 94% 0 mm 0 W/m2
04:40 13.7 °C 12.9 °C 1019.2 hPa SSE 1.6 km/h 8 km/h 95% 0 mm 0 W/m2
04:50 13.6 °C 12.7 °C 1019.2 hPa West 1.6 km/h 4.8 km/h 94% 0 mm 3 W/m2
05:00 13.5 °C 12.7 °C 1019.2 hPa Calm   6.4 km/h 95% 0 mm 8 W/m2
05:10 13.4 °C 12.6 °C 1019.5 hPa Calm   4.8 km/h 95% 0 mm 15 W/m2
05:20 13.3 °C 12.3 °C 1019.5 hPa Calm   3.2 km/h 94% 0 mm 22 W/m2
05:30 13.3 °C 12.5 °C 1019.5 hPa Calm   3.2 km/h 95% 0 mm 31 W/m2
05:40 13.5 °C 12.8 °C 1019.5 hPa SSE 1.6 km/h 9.7 km/h 96% 0 mm 40 W/m2
05:50 13.9 °C 12.9 °C 1019.5 hPa SSE 1.6 km/h 12.9 km/h 94% 0 mm 76 W/m2
06:00 13.7 °C 12.8 °C 1019.9 hPa Calm   4.8 km/h 94% 0 mm 52 W/m2
06:10 13.8 °C 13 °C 1019.9 hPa WNW 1.6 km/h 8 km/h 95% 0 mm 57 W/m2
06:20 14.2 °C 13.4 °C 1019.9 hPa SE 3.2 km/h 9.7 km/h 95% 0 mm 63 W/m2
06:30 14.1 °C 13.2 °C 1019.9 hPa Calm   4.8 km/h 94% 0 mm 78 W/m2
06:40 14.1 °C 13.2 °C 1019.9 hPa Calm   3.2 km/h 94% 0 mm 84 W/m2
06:50 14.1 °C 13.3 °C 1019.9 hPa NE 1.6 km/h 6.4 km/h 95% 0 mm 109 W/m2
07:00 14.3 °C 13.5 °C 1019.9 hPa SSW 1.6 km/h 8 km/h 95% 0 mm 120 W/m2
07:10 14.6 °C 13.8 °C 1020.2 hPa SSE 3.2 km/h 8 km/h 95% 0 mm 107 W/m2
07:20 14.9 °C 14.1 °C 1020.2 hPa East 1.6 km/h 6.4 km/h 95% 0 mm 317 W/m2
07:30 15.3 °C 14.5 °C 1020.2 hPa SSE 1.6 km/h 8 km/h 95% 0 mm 161 W/m2
07:40 15.6 °C 14.8 °C 1020.2 hPa SW 1.6 km/h 4.8 km/h 95% 0 mm 191 W/m2
07:50 16 °C 15.2 °C 1020.2 hPa Calm   3.2 km/h 95% 0 mm 208 W/m2
08:00 16.4 °C 15.6 °C 1020.2 hPa West 1.6 km/h 1.6 km/h 95% 0 mm 239 W/m2
08:10 16.9 °C 16.1 °C 1020.2 hPa SW 1.6 km/h 4.8 km/h 95% 0 mm 248 W/m2
08:20 17.5 °C 16 °C 1020.5 hPa SSE 1.6 km/h 6.4 km/h 91% 0 mm 269 W/m2
08:30 18.1 °C 16.4 °C 1020.5 hPa SE 1.6 km/h 6.4 km/h 90% 0 mm 314 W/m2
08:40 18.8 °C 16.9 °C 1020.5 hPa SE 4.8 km/h 8 km/h 89% 0 mm 329 W/m2
08:50 19.4 °C 16.8 °C 1020.5 hPa SE 3.2 km/h 11.3 km/h 85% 0 mm 362 W/m2
09:00 19.9 °C 17.1 °C 1020.5 hPa SE 4.8 km/h 12.9 km/h 84% 0 mm 380 W/m2
09:10 20.6 °C 17.6 °C 1020.5 hPa SE 4.8 km/h 12.9 km/h 83% 0 mm 476 W/m2
09:20 21.5 °C 17.9 °C 1020.5 hPa SE 3.2 km/h 9.7 km/h 80% 0 mm 645 W/m2
09:30 22.2 °C 18 °C 1020.5 hPa SSE 4.8 km/h 11.3 km/h 77% 0 mm 477 W/m2
09:40 22.7 °C 18.7 °C 1020.2 hPa SSE 8 km/h 9.7 km/h 78% 0 mm 641 W/m2
09:50 23.2 °C 18.5 °C 1020.5 hPa South 1.6 km/h 9.7 km/h 75% 0 mm 540 W/m2
10:00 23.6 °C 18.7 °C 1020.5 hPa NE 1.6 km/h 9.7 km/h 74% 0 mm 559 W/m2
10:10 23.9 °C 18.1 °C 1020.5 hPa SSE 3.2 km/h 9.7 km/h 70% 0 mm 657 W/m2
10:20 24.3 °C 18.4 °C 1020.2 hPa SSE 4.8 km/h 9.7 km/h 70% 0 mm 710 W/m2
10:30 24.6 °C 18.8 °C 1020.2 hPa SSW 1.6 km/h 9.7 km/h 70% 0 mm 689 W/m2
10:40 25 °C 18.9 °C 1020.2 hPa WSW 1.6 km/h 8 km/h 69% 0 mm 485 W/m2
10:50 25.2 °C 18.9 °C 1020.2 hPa SSW 3.2 km/h 12.9 km/h 68% 0 mm 662 W/m2
11:00 25.5 °C 18.9 °C 1020.2 hPa WSW 1.6 km/h 9.7 km/h 67% 0 mm 600 W/m2
11:10 26.1 °C 19.5 °C 1020.2 hPa WSW 4.8 km/h 11.3 km/h 67% 0 mm 769 W/m2
11:20 26.4 °C 19 °C 1019.9 hPa WNW 1.6 km/h 8 km/h 64% 0 mm 888 W/m2
11:30 26.9 °C 19.2 °C 1019.9 hPa South 3.2 km/h 11.3 km/h 63% 0 mm 953 W/m2
11:40 27 °C 19.3 °C 1019.9 hPa South 3.2 km/h 11.3 km/h 63% 0 mm 961 W/m2
11:50 27.3 °C 19.4 °C 1019.9 hPa SSE 1.6 km/h 11.3 km/h 62% 0 mm 967 W/m2
12:00 27.6 °C 19.1 °C 1019.5 hPa SSE 4.8 km/h 11.3 km/h 60% 0 mm 621 W/m2
12:10 27.4 °C 18.9 °C 1019.5 hPa ESE 4.8 km/h 12.9 km/h 60% 0 mm 442 W/m2
12:20 27.2 °C 18.8 °C 1019.5 hPa ENE 8 km/h 11.3 km/h 60% 0 mm 245 W/m2
12:30 26.9 °C 19.3 °C 1019.5 hPa NNE 3.2 km/h 14.5 km/h 63% 0 mm 201 W/m2
12:40 26.2 °C 19.6 °C 1019.5 hPa NNW 11.3 km/h 19.3 km/h 67% 0 mm 181 W/m2
12:50 25.3 °C 19 °C 1019.2 hPa NNW 8 km/h 20.9 km/h 68% 0 mm 213 W/m2
13:00 24.6 °C 18.8 °C 1019.2 hPa NNW 8 km/h 19.3 km/h 70% 0 mm 460 W/m2
13:10 24.7 °C 20.4 °C 1019.2 hPa WSW 4.8 km/h 11.3 km/h 77% 0 mm 843 W/m2
13:20 25.4 °C 20.4 °C 1019.2 hPa WSW 8 km/h 11.3 km/h 74% 0 mm 917 W/m2
13:30 25.9 °C 20.7 °C 1019.2 hPa West 4.8 km/h 11.3 km/h 73% 0 mm 634 W/m2
13:40 25.9 °C 19.8 °C 1019.2 hPa WSW 8 km/h 12.9 km/h 69% 0 mm 941 W/m2
13:50 26.3 °C 19.9 °C 1018.8 hPa WSW 8 km/h 14.5 km/h 68% 0 mm 930 W/m2
14:00 26.9 °C 20.2 °C 1018.8 hPa SW 4.8 km/h 11.3 km/h 67% 0 mm 917 W/m2
14:10 27.3 °C 19.9 °C 1018.8 hPa SW 8 km/h 12.9 km/h 64% 0 mm 903 W/m2
14:20 27.6 °C 19.7 °C 1018.8 hPa WSW 8 km/h 11.3 km/h 62% 0 mm 888 W/m2
14:30 27.9 °C 20.2 °C 1018.8 hPa NNW 1.6 km/h 9.7 km/h 63% 0 mm 871 W/m2
14:40 28.3 °C 19.8 °C 1018.8 hPa NW 3.2 km/h 8 km/h 60% 0 mm 854 W/m2
14:50 28.6 °C 19.8 °C 1018.5 hPa WSW 4.8 km/h 14.5 km/h 59% 0 mm 834 W/m2
15:00 28.7 °C 19.3 °C 1018.5 hPa WSW 8 km/h 9.7 km/h 57% 0 mm 814 W/m2
15:10 28.8 °C 18.6 °C 1018.5 hPa SW 3.2 km/h 11.3 km/h 54% 0 mm 793 W/m2
15:20 29.1 °C 18.8 °C 1018.2 hPa WSW 4.8 km/h 12.9 km/h 54% 0 mm 770 W/m2
15:30 29.2 °C 19.2 °C 1018.2 hPa SW 11.3 km/h 16.1 km/h 55% 0 mm 747 W/m2
15:40 29.2 °C 19.2 °C 1018.2 hPa SW 8 km/h 14.5 km/h 55% 0 mm 722 W/m2
15:50 29.2 °C 18.6 °C 1018.2 hPa SW 9.7 km/h 16.1 km/h 53% 0 mm 697 W/m2
16:00 29.3 °C 18.7 °C 1018.2 hPa SW 9.7 km/h 17.7 km/h 53% 0 mm 671 W/m2
16:10 29.4 °C 18.8 °C 1018.5 hPa SW 3.2 km/h 12.9 km/h 53% 0 mm 644 W/m2
16:20 29 °C 19.1 °C 1018.5 hPa NW 8 km/h 11.3 km/h 55% 0 mm 83 W/m2
16:30 28.3 °C 19.5 °C 1018.5 hPa NNW 3.2 km/h 12.9 km/h 59% 0 mm 69 W/m2
16:40 27.1 °C 20.4 °C 1018.8 hPa NNW 1.6 km/h 11.3 km/h 67% 0.25 mm 111 W/m2
16:50 26.2 °C 19.8 °C 1018.8 hPa West 4.8 km/h 11.3 km/h 68% 0.25 mm 95 W/m2
17:00 25.5 °C 20.3 °C 1019.2 hPa North 4.8 km/h 11.3 km/h 73% 0.76 mm 63 W/m2
17:10 24.5 °C 20.6 °C 1019.2 hPa NNW 3.2 km/h 12.9 km/h 79% 1.02 mm 76 W/m2
17:20 24 °C 20.6 °C 1019.2 hPa ENE 4.8 km/h 11.3 km/h 81% 1.52 mm 114 W/m2
17:30 23.5 °C 21 °C 1019.2 hPa NNW 3.2 km/h 8 km/h 86% 0.25 mm 255 W/m2
17:40 23.5 °C 21.4 °C 1019.2 hPa North 1.6 km/h 9.7 km/h 88% 0 mm 378 W/m2
17:50 23.6 °C 21.5 °C 1019.2 hPa Calm   9.7 km/h 88% 0 mm 258 W/m2
18:00 23.7 °C 20.8 °C 1019.2 hPa NNW 3.2 km/h 9.7 km/h 84% 0 mm 317 W/m2
18:10 23.9 °C 21.2 °C 1019.2 hPa NNW 3.2 km/h 8 km/h 85% 0 mm 271 W/m2
18:30 23.6 °C 20.7 °C 1019.5 hPa West 1.6 km/h 4.8 km/h 84% 0 mm 229 W/m2
18:40 23.7 °C 20.8 °C 1019.5 hPa SW 3.2 km/h 8 km/h 84% 0 mm 201 W/m2
18:50 23.7 °C 20.1 °C 1019.5 hPa SSW 3.2 km/h 6.4 km/h 80% 0 mm 173 W/m2
19:00 23.6 °C 20.6 °C 1019.5 hPa SSE 1.6 km/h 8 km/h 83% 0 mm 147 W/m2
19:10 23.6 °C 20.6 °C 1019.9 hPa SSW 3.2 km/h 4.8 km/h 83% 0 mm 121 W/m2
19:20 23.4 °C 19.9 °C 1019.9 hPa SW 1.6 km/h 6.4 km/h 81% 0 mm 97 W/m2
19:30 23.2 °C 19.8 °C 1019.9 hPa South 3.2 km/h 6.4 km/h 81% 0 mm 73 W/m2
19:40 23.1 °C 20.2 °C 1019.9 hPa SW 1.6 km/h 4.8 km/h 84% 0 mm 48 W/m2
19:50 22.9 °C 20.1 °C 1019.9 hPa Calm   3.2 km/h 84% 0 mm 30 W/m2
20:00 22.8 °C 19.9 °C 1019.9 hPa SSW 1.6 km/h 4.8 km/h 84% 0 mm 14 W/m2
20:10 22.3 °C 19.8 °C 1019.9 hPa SSE 1.6 km/h 6.4 km/h 86% 0 mm 6 W/m2
20:20 22 °C 19.9 °C 1019.9 hPa SW 1.6 km/h 3.2 km/h 88% 0 mm 0 W/m2
20:30 21.7 °C 19.6 °C 1019.9 hPa NNW 1.6 km/h 4.8 km/h 88% 0 mm 0 W/m2
Knjazevac, Serbia
Compliments of Weather Underground - 2 mb